Swastika, Canada
Current Conditions -  °F | °C
As of 11:36 AM on Friday 31 Oct 2014 (Local Time) from CYXR Reporting Station
Light Snow Light Snow  
Wind Chill: 21°   Ceiling: 2100
Heat Index: 30°   Visibility: 2.5mi
Dew Point: 27°   Wind: 12mph
Humidity: 86%   Direction: 360°N
Pressure: 30.18"   Gusts: NA
Location:  48.1°N, 80.1°W
Report Text: CYXR 311536Z AUTO 36010KT 2 1/2SM -SN SCT014 BKN021 OVC025 M01/M03 A3018 RMK ICG INTMT SLP234
Loading
Personal Weather Stations






























Interactive Weather Map
Tropical Storm Tracking
New forecast layout! Learn more

10-Day Weather Forecast

Advertisements
Track Severe Weather on mobile